Time;durP1;ratioP1;P1;durP2;ratioP2;P2;SDS_P1;SDS_P2;PMS_P1;PMS_P2;Temp;Humidity;BMP_temperature;BMP_pressure;BME280_temperature;BME280_humidity;BME280_pressure;Samples;Min_cycle;Max_cycle;Signal;HPM_P1;HPM_P2
2022/04/27 00:00:31;;;;;;;12.27;11.18;;;8.10;99.90;;;;;;5072447;28;20181;-69
2022/04/27 00:02:57;;;;;;;13.00;11.70;;;8.00;99.90;;;;;;5072452;28;20177;-69
2022/04/27 00:05:26;;;;;;;12.60;11.50;;;8.00;99.90;;;;;;5072747;28;20182;-69
2022/04/27 00:07:52;;;;;;;12.05;10.95;;;8.00;99.90;;;;;;5072530;28;20198;-69
2022/04/27 00:10:21;;;;;;;12.25;11.15;;;8.00;99.90;;;;;;5072643;28;20200;-69
2022/04/27 00:12:47;;;;;;;11.05;10.05;;;8.00;99.90;;;;;;5073447;28;20248;-69
2022/04/27 00:15:14;;;;;;;11.25;10.32;;;8.00;99.90;;;;;;5072763;28;20182;-69
2022/04/27 00:17:39;;;;;;;11.15;10.25;;;8.00;99.90;;;;;;5073252;28;20269;-69
2022/04/27 00:20:07;;;;;;;12.18;11.15;;;8.00;99.90;;;;;;5072546;28;20264;-69
2022/04/27 00:22:33;;;;;;;12.80;11.50;;;7.80;99.90;;;;;;5072909;28;20273;-69
2022/04/27 00:25:00;;;;;;;11.90;10.80;;;7.80;99.90;;;;;;5073398;28;20197;-69
2022/04/27 00:27:30;;;;;;;12.95;11.75;;;7.80;99.90;;;;;;5071856;28;20197;-69
2022/04/27 00:29:56;;;;;;;12.07;11.00;;;7.70;99.90;;;;;;5073451;28;20173;-69
2022/04/27 00:32:22;;;;;;;11.85;10.85;;;7.60;99.90;;;;;;5073736;28;20173;-70
2022/04/27 00:34:48;;;;;;;12.55;11.25;;;7.50;99.90;;;;;;5072367;28;20181;-70
2022/04/27 00:37:13;;;;;;;11.80;10.68;;;7.50;99.90;;;;;;5072729;28;20209;-70
2022/04/27 00:39:39;;;;;;;11.65;10.65;;;7.40;99.90;;;;;;5072164;28;20169;-70
2022/04/27 00:42:18;;;;;;;11.82;10.73;;;7.20;99.90;;;;;;5071981;28;20296;-70
2022/04/27 00:44:44;;;;;;;10.57;9.70;;;7.10;99.90;;;;;;5073396;28;20173;-70
2022/04/27 00:47:10;;;;;;;11.63;10.63;;;7.10;99.90;;;;;;5072453;28;20211;-69
2022/04/27 00:49:43;;;;;;;11.32;10.32;;;7.10;99.90;;;;;;5071951;28;20264;-69
2022/04/27 00:52:12;;;;;;;11.73;10.57;;;7.10;99.90;;;;;;5073517;28;20154;-69
2022/04/27 00:54:41;;;;;;;10.85;9.85;;;7.10;99.90;;;;;;5073118;28;20169;-69
2022/04/27 00:57:07;;;;;;;11.00;10.00;;;7.00;99.90;;;;;;5071786;28;20237;-69
2022/04/27 00:59:32;;;;;;;11.45;10.45;;;7.00;99.90;;;;;;5072060;28;20177;-69
2022/04/27 01:01:58;;;;;;;11.35;10.35;;;7.10;99.90;;;;;;5072348;28;20710;-69
2022/04/27 01:04:24;;;;;;;12.30;11.20;;;7.10;99.90;;;;;;5071809;28;20170;-69
2022/04/27 01:06:50;;;;;;;12.20;11.10;;;7.00;99.90;;;;;;5071991;28;20210;-69
2022/04/27 01:09:17;;;;;;;12.27;11.18;;;7.00;99.90;;;;;;5071985;28;20209;-69
2022/04/27 01:11:44;;;;;;;13.30;12.00;;;6.90;99.90;;;;;;5071744;28;20180;-69
2022/04/27 01:14:10;;;;;;;12.70;11.43;;;6.80;99.90;;;;;;5072907;28;20185;-69
2022/04/27 01:16:36;;;;;;;14.75;13.35;;;6.70;99.90;;;;;;5071893;28;20262;-69
2022/04/27 01:19:02;;;;;;;13.03;11.67;;;6.70;99.90;;;;;;5071704;28;20181;-69
2022/04/27 01:21:27;;;;;;;11.83;10.73;;;6.60;99.90;;;;;;5071968;28;20189;-69
2022/04/27 01:23:53;;;;;;;11.17;10.10;;;6.60;99.90;;;;;;5072928;28;20185;-69
2022/04/27 01:26:19;;;;;;;11.73;10.63;;;6.60;99.90;;;;;;5072310;28;20757;-69
2022/04/27 01:28:45;;;;;;;11.07;10.07;;;6.50;99.90;;;;;;5072819;28;20298;-69
2022/04/27 01:31:11;;;;;;;11.83;10.73;;;6.60;99.90;;;;;;5072684;28;20530;-69
2022/04/27 01:33:37;;;;;;;11.53;10.30;;;6.60;99.90;;;;;;5071829;28;20182;-69
2022/04/27 01:36:05;;;;;;;12.38;11.18;;;6.60;99.90;;;;;;5072195;28;20220;-69
2022/04/27 01:38:42;;;;;;;11.80;10.70;;;6.50;99.90;;;;;;5071463;28;20198;-69
2022/04/27 01:41:08;;;;;;;12.37;11.27;;;6.50;99.90;;;;;;5074027;28;20165;-69
2022/04/27 01:43:35;;;;;;;15.10;13.60;;;6.50;99.90;;;;;;5074882;28;20645;-69
2022/04/27 01:46:01;;;;;;;16.30;14.70;;;6.40;99.90;;;;;;5074907;28;20208;-70
2022/04/27 01:48:27;;;;;;;12.60;11.50;;;6.30;99.90;;;;;;5076332;28;20193;-69
2022/04/27 01:50:53;;;;;;;11.47;10.37;;;6.30;99.90;;;;;;5075809;28;20200;-69
2022/04/27 01:56:04;;;;;;;10.37;9.37;;;6.30;99.90;;;;;;5076151;28;20164;-70
2022/04/27 01:58:30;;;;;;;10.70;9.70;;;6.30;99.90;;;;;;5075006;28;20201;-69
2022/04/27 02:00:55;;;;;;;11.97;10.80;;;6.30;99.90;;;;;;5075022;28;20178;-69
2022/04/27 02:03:21;;;;;;;11.37;10.27;;;6.20;99.90;;;;;;5075681;28;20169;-70
2022/04/27 02:05:48;;;;;;;12.17;11.03;;;6.20;99.90;;;;;;5075810;28;20197;-70
2022/04/27 02:08:14;;;;;;;10.90;9.80;;;6.00;99.90;;;;;;5075051;28;20284;-69
2022/04/27 02:10:40;;;;;;;11.53;10.33;;;5.90;99.90;;;;;;5074764;28;20181;-69
2022/04/27 02:13:08;;;;;;;11.63;10.50;;;5.90;99.90;;;;;;5075638;28;20185;-69
2022/04/27 02:15:34;;;;;;;11.97;10.43;;;5.90;99.90;;;;;;5075605;28;20658;-69
2022/04/27 02:18:00;;;;;;;14.13;12.73;;;5.90;99.90;;;;;;5074240;28;20213;-69
2022/04/27 02:20:26;;;;;;;13.67;12.37;;;5.90;99.90;;;;;;5074645;28;20212;-70
2022/04/27 02:22:52;;;;;;;13.17;11.90;;;5.80;99.90;;;;;;5074203;28;20193;-70
2022/04/27 02:25:19;;;;;;;14.20;12.53;;;5.90;99.90;;;;;;5074246;28;20277;-70
2022/04/27 02:27:44;;;;;;;13.93;10.93;;;5.90;99.90;;;;;;5074247;28;20202;-69
2022/04/27 02:30:11;;;;;;;13.03;11.63;;;5.80;99.90;;;;;;5074068;28;20192;-69
2022/04/27 02:32:37;;;;;;;14.33;12.80;;;5.80;99.90;;;;;;5075294;28;20231;-69
2022/04/27 02:35:04;;;;;;;15.00;13.50;;;5.60;99.90;;;;;;5074132;28;20268;-69
2022/04/27 02:37:30;;;;;;;17.20;14.97;;;5.60;99.90;;;;;;5073923;28;20205;-69
2022/04/27 02:39:59;;;;;;;16.67;14.87;;;5.50;99.90;;;;;;5074792;28;20181;-70
2022/04/27 02:42:26;;;;;;;19.43;16.13;;;5.50;99.90;;;;;;5073997;28;20178;-70
2022/04/27 02:44:51;;;;;;;19.83;16.00;;;5.50;99.90;;;;;;5074651;28;20173;-69
2022/04/27 02:47:18;;;;;;;16.53;14.90;;;5.50;99.90;;;;;;5073707;28;20711;-69
2022/04/27 02:52:28;;;;;;;117.63;19.37;;;5.40;99.90;;;;;;5075335;28;20638;-69
2022/04/27 02:54:54;;;;;;;42.00;19.33;;;5.40;99.90;;;;;;5073941;28;20181;-69
2022/04/27 02:57:19;;;;;;;41.17;18.80;;;5.30;99.90;;;;;;5073419;28;20209;-69
2022/04/27 02:59:45;;;;;;;60.67;19.50;;;5.20;99.90;;;;;;5073545;28;20181;-69
2022/04/27 03:02:10;;;;;;;24.50;19.20;;;5.30;99.90;;;;;;5073980;28;20258;-69
2022/04/27 03:04:36;;;;;;;80.63;17.10;;;5.40;99.90;;;;;;5074895;28;20173;-69
2022/04/27 03:07:03;;;;;;;85.60;15.87;;;5.30;99.90;;;;;;5073302;28;20205;-69
2022/04/27 03:09:29;;;;;;;34.37;15.60;;;5.30;99.90;;;;;;5073583;28;20205;-69
2022/04/27 03:11:55;;;;;;;162.73;17.07;;;5.30;99.90;;;;;;5073286;28;20189;-69
2022/04/27 03:14:20;;;;;;;103.90;15.67;;;5.10;99.90;;;;;;5073126;28;20213;-69
2022/04/27 03:16:47;;;;;;;130.00;14.30;;;5.20;99.90;;;;;;5073005;28;20248;-69
2022/04/27 03:19:13;;;;;;;106.10;15.63;;;5.00;99.90;;;;;;5073495;28;20173;-69
2022/04/27 03:21:38;;;;;;;21.57;14.03;;;5.10;99.90;;;;;;5073206;28;20197;-69
2022/04/27 03:24:04;;;;;;;55.10;17.03;;;5.20;99.90;;;;;;5073073;28;20180;-69
2022/04/27 03:26:30;;;;;;;135.13;18.37;;;5.20;99.90;;;;;;5073520;28;20213;-69
2022/04/27 03:28:55;;;;;;;27.77;17.13;;;5.20;99.90;;;;;;5073139;28;20552;-69
2022/04/27 03:31:21;;;;;;;292.60;20.17;;;5.20;99.90;;;;;;5074006;28;20181;-69
2022/04/27 03:33:46;;;;;;;44.30;18.03;;;5.20;99.90;;;;;;5072931;28;20185;-69
2022/04/27 03:36:12;;;;;;;323.73;23.33;;;5.20;99.90;;;;;;5073076;28;20209;-69
2022/04/27 03:38:38;;;;;;;37.13;18.93;;;5.30;99.90;;;;;;5072659;28;20202;-68
2022/04/27 03:41:04;;;;;;;24.30;19.20;;;5.30;99.90;;;;;;5073072;28;20178;-68
2022/04/27 03:43:30;;;;;;;151.67;18.87;;;5.40;99.90;;;;;;5073877;28;20169;-68
2022/04/27 03:45:56;;;;;;;65.30;18.43;;;5.40;99.90;;;;;;5073814;28;20689;-68
2022/04/27 03:48:22;;;;;;;20.33;17.90;;;5.40;99.90;;;;;;5074086;28;20197;-68
2022/04/27 03:50:47;;;;;;;40.67;17.93;;;5.50;99.90;;;;;;5072480;28;20177;-69
2022/04/27 03:53:13;;;;;;;55.83;16.70;;;5.60;99.90;;;;;;5073708;28;20185;-68
2022/04/27 03:55:38;;;;;;;19.63;14.77;;;5.70;99.90;;;;;;5073978;28;20621;-69
2022/04/27 03:58:05;;;;;;;47.17;13.47;;;5.70;99.90;;;;;;5073538;28;20205;-68
2022/04/27 04:00:31;;;;;;;13.83;12.47;;;5.80;99.90;;;;;;5072410;28;20238;-68
2022/04/27 04:06:19;;;;;;;20.63;13.73;;;5.70;99.90;;;;;;5073575;28;20161;-68
2022/04/27 04:08:44;;;;;;;25.23;14.50;;;5.70;99.90;;;;;;5074160;28;20172;-68
2022/04/27 04:11:11;;;;;;;72.67;15.27;;;5.80;99.90;;;;;;5072286;28;20181;-68
2022/04/27 04:13:37;;;;;;;22.90;15.33;;;5.80;99.90;;;;;;5072234;28;20181;-68
2022/04/27 04:16:02;;;;;;;15.90;14.40;;;5.80;99.90;;;;;;5073796;28;20181;-68
2022/04/27 04:18:28;;;;;;;17.43;15.63;;;5.90;99.90;;;;;;5073581;28;20246;-68
2022/04/27 04:20:53;;;;;;;39.70;16.73;;;6.00;99.90;;;;;;5072109;28;20579;-68
2022/04/27 04:23:19;;;;;;;48.00;18.17;;;6.10;99.90;;;;;;5072159;28;20229;-68
2022/04/27 04:28:32;;;;;;;65.67;16.97;;;6.20;99.90;;;;;;5073892;28;20678;-68
2022/04/27 04:31:05;;;;;;;18.77;16.50;;;6.30;99.90;;;;;;5072183;28;20283;-68
2022/04/27 04:33:30;;;;;;;18.83;16.23;;;6.30;99.90;;;;;;5073257;28;20178;-68
2022/04/27 04:35:57;;;;;;;23.67;16.83;;;6.30;99.90;;;;;;5072009;28;20177;-68
2022/04/27 04:38:23;;;;;;;18.90;17.00;;;6.50;99.90;;;;;;5072121;28;20189;-68
2022/04/27 04:40:49;;;;;;;27.30;16.17;;;6.60;99.90;;;;;;5073250;28;20170;-69
2022/04/27 04:43:15;;;;;;;155.77;17.97;;;6.70;99.90;;;;;;5072292;28;20195;-69
2022/04/27 04:45:41;;;;;;;252.57;19.50;;;6.60;99.90;;;;;;5073180;28;20266;-69
2022/04/27 04:48:08;;;;;;;128.10;18.87;;;6.60;99.90;;;;;;5072262;28;20286;-69
2022/04/27 04:50:34;;;;;;;68.90;18.77;;;6.50;99.90;;;;;;5071926;28;20231;-69
2022/04/27 04:53:00;;;;;;;22.80;17.37;;;6.50;99.90;;;;;;5073094;28;20178;-69
2022/04/27 04:55:25;;;;;;;55.83;17.97;;;6.50;99.90;;;;;;5072218;28;20211;-69
2022/04/27 04:57:51;;;;;;;29.17;19.20;;;6.50;99.90;;;;;;5073096;28;20559;-69
2022/04/27 05:00:17;;;;;;;146.63;18.17;;;6.60;99.90;;;;;;5072091;28;20178;-69
2022/04/27 05:02:42;;;;;;;18.23;16.33;;;6.60;99.90;;;;;;5073311;28;20185;-69
2022/04/27 05:05:08;;;;;;;18.60;16.10;;;6.90;99.90;;;;;;5071758;28;20178;-69
2022/04/27 05:07:34;;;;;;;68.47;16.03;;;7.00;99.90;;;;;;5071986;28;20201;-69
2022/04/27 05:10:00;;;;;;;22.00;16.00;;;6.90;99.90;;;;;;5071745;28;20216;-69
2022/04/27 05:12:25;;;;;;;25.37;15.80;;;6.90;99.90;;;;;;5071767;28;20177;-69
2022/04/27 05:14:52;;;;;;;20.37;16.30;;;6.80;99.90;;;;;;5072647;28;20178;-69
2022/04/27 05:17:17;;;;;;;24.63;15.87;;;6.80;99.90;;;;;;5075621;28;20213;-69
2022/04/27 05:19:52;;;;;;;17.50;14.40;;;7.00;99.90;;;;;;5076769;28;20521;-69
2022/04/27 05:22:18;;;;;;;38.17;14.70;;;7.10;99.90;;;;;;5075699;28;20196;-69
2022/04/27 05:24:44;;;;;;;23.57;14.20;;;7.30;99.90;;;;;;5076118;28;20174;-69
2022/04/27 05:27:09;;;;;;;15.37;13.07;;;7.40;99.90;;;;;;5075110;28;20206;-69
2022/04/27 05:32:19;;;;;;;25.87;13.00;;;7.50;99.90;;;;;;5076972;28;20295;-69
2022/04/27 05:34:45;;;;;;;14.33;12.80;;;7.50;99.90;;;;;;5076274;28;20182;-69
2022/04/27 05:37:12;;;;;;;13.50;12.10;;;7.60;99.90;;;;;;5076423;28;20209;-69
2022/04/27 05:39:38;;;;;;;13.30;12.10;;;7.70;99.90;;;;;;5075140;28;20185;-68
2022/04/27 05:42:03;;;;;;;32.85;13.07;;;7.70;99.90;;;;;;5075013;28;20181;-68
2022/04/27 05:44:29;;;;;;;14.95;12.90;;;7.80;99.90;;;;;;5075424;28;20205;-69
2022/04/27 05:46:55;;;;;;;16.67;14.05;;;7.90;99.90;;;;;;5076359;28;20675;-69
2022/04/27 05:49:21;;;;;;;18.48;13.55;;;8.10;99.90;;;;;;5075161;28;20636;-69
2022/04/27 05:51:47;;;;;;;26.90;15.55;;;8.20;99.90;;;;;;5076029;28;20182;-69
2022/04/27 05:54:14;;;;;;;15.70;14.20;;;8.20;99.90;;;;;;5074778;28;20211;-68
2022/04/27 05:56:40;;;;;;;16.80;14.40;;;8.40;99.90;;;;;;5076074;28;20231;-68
2022/04/27 05:59:07;;;;;;;17.00;12.88;;;8.60;99.90;;;;;;5075001;28;20178;-68
2022/04/27 06:01:47;;;;;;;14.18;12.98;;;8.70;99.90;;;;;;5075873;28;20170;-68
2022/04/27 06:04:13;;;;;;;14.13;12.40;;;8.90;99.90;;;;;;5076066;28;20162;-69
2022/04/27 06:06:39;;;;;;;13.32;12.20;;;9.20;99.90;;;;;;5076073;28;20273;-69
2022/04/27 06:09:04;;;;;;;18.13;11.80;;;9.30;99.90;;;;;;5076660;28;20174;-69
2022/04/27 06:11:30;;;;;;;40.85;11.75;;;9.10;99.90;;;;;;5074478;28;20178;-69
2022/04/27 06:13:56;;;;;;;11.98;10.98;;;8.80;99.90;;;;;;5074421;28;20188;-69
2022/04/27 06:16:23;;;;;;;11.85;10.85;;;8.90;99.90;;;;;;5074571;28;20695;-70
2022/04/27 06:18:49;;;;;;;11.90;10.90;;;9.10;99.90;;;;;;5075614;28;20166;-68
2022/04/27 06:21:14;;;;;;;17.27;11.02;;;9.10;99.90;;;;;;5074195;28;20196;-68
2022/04/27 06:23:40;;;;;;;12.18;11.18;;;9.20;99.90;;;;;;5074352;28;20187;-68
2022/04/27 06:26:06;;;;;;;12.38;11.27;;;9.20;99.90;;;;;;5074845;28;20264;-69
2022/04/27 06:28:35;;;;;;;12.45;11.35;;;9.30;99.90;;;;;;5074092;28;20281;-69
2022/04/27 06:31:01;;;;;;;12.68;11.50;;;9.50;99.90;;;;;;5074358;28;20189;-70
2022/04/27 06:33:27;;;;;;;12.63;11.52;;;9.40;99.90;;;;;;5075215;28;20181;-69
2022/04/27 06:35:53;;;;;;;13.32;12.13;;;9.50;99.90;;;;;;5074529;28;20177;-68
2022/04/27 06:38:18;;;;;;;12.40;11.40;;;9.50;99.90;;;;;;5074117;28;20653;-68
2022/04/27 06:40:44;;;;;;;13.27;12.00;;;9.50;99.90;;;;;;5075544;28;20216;-68
2022/04/27 06:43:10;;;;;;;12.40;11.30;;;9.70;99.90;;;;;;5074836;28;20239;-69
2022/04/27 06:45:36;;;;;;;13.20;11.90;;;9.80;99.90;;;;;;5074176;28;20180;-69
2022/04/27 06:48:03;;;;;;;14.02;12.73;;;10.00;99.90;;;;;;5073718;28;20197;-68
2022/04/27 06:50:28;;;;;;;13.32;11.98;;;10.10;99.90;;;;;;5075306;28;20181;-70
2022/04/27 06:52:55;;;;;;;14.20;12.95;;;10.00;99.90;;;;;;5073735;28;20310;-68
2022/04/27 06:55:21;;;;;;;15.15;13.75;;;9.90;99.90;;;;;;5074844;28;20182;-69
2022/04/27 06:57:46;;;;;;;15.43;14.00;;;9.90;99.90;;;;;;5073568;28;20220;-68
2022/04/27 07:00:12;;;;;;;15.52;14.07;;;9.80;99.90;;;;;;5073863;28;20191;-69
2022/04/27 07:02:39;;;;;;;15.13;13.75;;;9.90;99.90;;;;;;5074678;28;20252;-69
2022/04/27 07:05:06;;;;;;;15.65;14.20;;;10.00;99.90;;;;;;5074736;28;20290;-69
2022/04/27 07:07:32;;;;;;;16.52;15.02;;;10.00;99.90;;;;;;5074719;28;20683;-68
2022/04/27 07:09:58;;;;;;;16.45;14.90;;;9.90;99.90;;;;;;5073427;28;20177;-69
2022/04/27 07:12:24;;;;;;;16.13;14.73;;;9.90;99.90;;;;;;5074061;28;20260;-69
2022/04/27 07:14:51;;;;;;;16.33;14.82;;;10.10;99.90;;;;;;5073296;28;20184;-69
2022/04/27 07:17:17;;;;;;;17.42;15.77;;;10.10;99.90;;;;;;5074373;28;20216;-70
2022/04/27 07:19:42;;;;;;;16.90;15.30;;;10.10;99.90;;;;;;5073619;28;20178;-70
2022/04/27 07:22:08;;;;;;;17.10;15.40;;;10.20;99.90;;;;;;5074302;28;20190;-70
2022/04/27 07:24:34;;;;;;;17.33;15.73;;;10.40;99.90;;;;;;5073407;28;20180;-70
2022/04/27 07:26:59;;;;;;;16.52;15.02;;;10.60;99.90;;;;;;5073638;28;20198;-69
2022/04/27 07:29:25;;;;;;;18.50;16.63;;;10.70;99.90;;;;;;5074190;28;20185;-68
2022/04/27 07:31:51;;;;;;;17.35;15.75;;;10.80;99.90;;;;;;5073554;28;20227;-68
2022/04/27 07:34:17;;;;;;;16.90;15.15;;;10.90;99.90;;;;;;5073586;28;20675;-69
2022/04/27 07:36:43;;;;;;;17.92;16.13;;;10.90;99.90;;;;;;5072708;28;20236;-69
2022/04/27 07:39:08;;;;;;;17.67;16.02;;;10.90;99.90;;;;;;5072425;28;20196;-69
2022/04/27 07:41:34;;;;;;;16.85;15.25;;;11.10;99.90;;;;;;5073952;28;20177;-69
2022/04/27 07:44:00;;;;;;;18.70;16.27;;;11.30;99.90;;;;;;5072601;28;20174;-69
2022/04/27 07:46:26;;;;;;;16.30;14.82;;;11.40;99.90;;;;;;5073776;28;20188;-69
2022/04/27 07:48:51;;;;;;;16.58;14.75;;;11.60;99.90;;;;;;5073818;28;20266;-70
2022/04/27 07:51:17;;;;;;;16.67;15.15;;;11.70;99.90;;;;;;5072890;28;20177;-69
2022/04/27 07:53:43;;;;;;;15.85;13.75;;;11.70;99.90;;;;;;5072830;28;20189;-69
2022/04/27 07:56:09;;;;;;;17.67;14.02;;;11.90;99.90;;;;;;5072382;28;20173;-69
2022/04/27 07:58:35;;;;;;;16.48;14.02;;;12.00;99.90;;;;;;5073043;28;20193;-69
2022/04/27 08:01:01;;;;;;;14.32;12.93;;;12.00;99.90;;;;;;5072622;28;20188;-70
2022/04/27 08:03:27;;;;;;;14.90;13.50;;;12.20;99.90;;;;;;5072799;28;20184;-70
2022/04/27 08:05:52;;;;;;;15.45;13.95;;;12.40;99.90;;;;;;5073179;28;20170;-70
2022/04/27 08:08:18;;;;;;;16.30;13.00;;;12.40;99.90;;;;;;5073303;28;20212;-68
2022/04/27 08:10:44;;;;;;;16.08;13.63;;;12.40;99.90;;;;;;5072772;28;20181;-68
2022/04/27 08:13:10;;;;;;;14.98;13.48;;;12.50;99.90;;;;;;5073695;28;20186;-68
2022/04/27 08:15:35;;;;;;;14.48;12.98;;;12.60;99.90;;;;;;5072422;28;20279;-69
2022/04/27 08:18:09;;;;;;;14.32;11.73;;;12.70;99.90;;;;;;5073849;28;20220;-68
2022/04/27 08:23:23;;;;;;;13.27;10.45;;;13.10;99.90;;;;;;5074005;28;20169;-68
2022/04/27 08:25:50;;;;;;;11.30;10.18;;;13.30;99.90;;;;;;5072247;28;20172;-69
2022/04/27 08:28:17;;;;;;;11.43;10.32;;;13.30;99.90;;;;;;5072172;28;20202;-69
2022/04/27 08:30:48;;;;;;;11.43;10.10;;;13.50;99.90;;;;;;5073213;28;20624;-68
2022/04/27 08:33:14;;;;;;;10.38;9.38;;;13.60;99.90;;;;;;5072267;28;20180;-70
2022/04/27 08:35:40;;;;;;;10.38;9.48;;;13.70;99.90;;;;;;5072287;28;20173;-68
2022/04/27 08:38:07;;;;;;;10.57;8.90;;;13.70;99.90;;;;;;5072484;28;20255;-68
2022/04/27 08:40:35;;;;;;;9.35;7.93;;;13.80;99.90;;;;;;5072276;28;20177;-68
2022/04/27 08:43:01;;;;;;;9.07;8.38;;;13.80;99.90;;;;;;5072163;28;20269;-70
2022/04/27 08:45:27;;;;;;;8.15;7.35;;;13.80;99.90;;;;;;5072303;28;20197;-69
2022/04/27 08:47:53;;;;;;;7.43;6.82;;;13.80;96.70;;;;;;5073500;28;20205;-69
2022/04/27 08:50:21;;;;;;;9.38;8.48;;;13.90;95.90;;;;;;5075279;28;20178;-68
2022/04/27 08:52:47;;;;;;;10.65;8.20;;;13.90;95.40;;;;;;5076182;28;20188;-69
2022/04/27 08:55:14;;;;;;;7.95;7.25;;;13.90;96.20;;;;;;5076453;28;20272;-69
2022/04/27 08:57:40;;;;;;;7.85;6.78;;;14.00;95.00;;;;;;5077003;28;20267;-68
2022/04/27 09:00:14;;;;;;;9.80;7.68;;;14.10;94.20;;;;;;5076520;28;20525;-68
2022/04/27 09:02:40;;;;;;;7.55;6.80;;;14.10;94.50;;;;;;5075731;28;20323;-68
2022/04/27 09:05:12;;;;;;;7.03;6.38;;;14.20;93.40;;;;;;5076206;28;20260;-68
2022/04/27 09:07:51;;;;;;;8.00;6.88;;;14.20;93.20;;;;;;5076051;28;20567;-68
2022/04/27 09:10:23;;;;;;;8.00;7.20;;;14.40;94.70;;;;;;5075846;28;20180;-68
2022/04/27 09:12:55;;;;;;;7.28;6.57;;;14.40;94.00;;;;;;5076896;28;20178;-68
2022/04/27 09:15:22;;;;;;;7.07;6.40;;;14.60;93.90;;;;;;5075566;28;20174;-68
2022/04/27 09:20:49;;;;;;;7.47;6.78;;;14.80;92.30;;;;;;5077226;28;20214;-69
2022/04/27 09:23:41;;;;;;;8.85;6.65;;;14.80;91.20;;;;;;5076597;28;20170;-70
2022/04/27 09:26:22;;;;;;;8.00;7.30;;;14.80;91.40;;;;;;5076285;28;20593;-70
2022/04/27 09:28:49;;;;;;;5.80;5.35;;;15.00;90.90;;;;;;5076582;28;20161;-70
2022/04/27 09:31:30;;;;;;;6.50;5.90;;;15.00;85.50;;;;;;5075668;28;20182;-70
2022/04/27 09:34:01;;;;;;;6.28;5.78;;;14.80;82.20;;;;;;5075166;28;20174;-71
2022/04/27 09:36:27;;;;;;;6.53;5.97;;;14.50;81.80;;;;;;5075900;28;20212;-68
2022/04/27 09:38:56;;;;;;;6.50;5.88;;;14.40;82.70;;;;;;5075621;28;20236;-68
2022/04/27 09:41:42;;;;;;;10.23;6.13;;;14.30;81.40;;;;;;5075410;28;20184;-71
2022/04/27 09:44:30;;;;;;;6.45;5.85;;;14.30;82.10;;;;;;5075099;28;20185;-71
2022/04/27 09:46:56;;;;;;;6.32;5.65;;;14.70;82.60;;;;;;5074914;28;20205;-70
2022/04/27 09:49:21;;;;;;;6.00;5.35;;;15.00;82.50;;;;;;5074919;28;20185;-70
2022/04/27 09:51:49;;;;;;;6.53;5.93;;;15.20;82.00;;;;;;5074898;28;20177;-71
2022/04/27 09:54:23;;;;;;;6.78;5.30;;;15.30;81.00;;;;;;5074834;28;20173;-70
2022/04/27 09:57:00;;;;;;;11.55;6.22;;;15.60;83.10;;;;;;5076272;28;20237;-68
2022/04/27 09:59:32;;;;;;;6.45;5.85;;;15.70;75.00;;;;;;5076125;28;20221;-70
2022/04/27 10:02:05;;;;;;;7.45;5.80;;;16.00;75.60;;;;;;5074792;28;20174;-70
2022/04/27 10:04:31;;;;;;;6.28;5.72;;;16.00;74.30;;;;;;5074972;28;20188;-70
2022/04/27 10:07:00;;;;;;;8.52;5.47;;;15.90;73.80;;;;;;5075845;28;20566;-70
2022/04/27 10:09:30;;;;;;;7.47;5.50;;;15.90;74.90;;;;;;5074617;28;20185;-70
2022/04/27 10:11:58;;;;;;;4.15;3.85;;;16.00;74.60;;;;;;5075554;28;20185;-68
2022/04/27 10:14:25;;;;;;;5.25;2.88;;;16.10;65.70;;;;;;5075374;28;20228;-70
2022/04/27 10:16:52;;;;;;;4.15;2.80;;;15.80;59.60;;;;;;5075073;28;20221;-70
2022/04/27 10:19:18;;;;;;;3.45;2.88;;;15.60;60.00;;;;;;5074466;28;20200;-68
2022/04/27 10:21:59;;;;;;;4.10;3.05;;;15.40;61.90;;;;;;5075781;28;20185;-68
2022/04/27 10:24:33;;;;;;;3.95;3.65;;;15.30;65.00;;;;;;5074323;28;20169;-68
2022/04/27 10:27:21;;;;;;;5.63;3.47;;;15.30;61.90;;;;;;5075244;28;20561;-69
2022/04/27 10:29:58;;;;;;;4.47;4.07;;;15.50;64.30;;;;;;5074319;28;20181;-70
2022/04/27 10:32:37;;;;;;;6.10;3.97;;;15.80;62.90;;;;;;5075362;28;20181;-71
2022/04/27 10:35:19;;;;;;;4.25;3.80;;;16.20;62.40;;;;;;5075186;28;20173;-70
2022/04/27 10:37:46;;;;;;;4.88;3.10;;;16.40;58.90;;;;;;5075224;28;20205;-70
2022/04/27 10:40:39;;;;;;;9.82;3.60;;;16.50;56.80;;;;;;5073962;28;20176;-70
2022/04/27 10:43:09;;;;;;;6.35;3.00;;;16.60;55.60;;;;;;5074061;28;20263;-69
2022/04/27 10:45:38;;;;;;;4.15;3.75;;;16.60;55.90;;;;;;5074134;28;20212;-69
2022/04/27 10:48:07;;;;;;;3.63;3.33;;;16.60;54.70;;;;;;5074188;28;20280;-69
2022/04/27 10:50:35;;;;;;;6.00;4.55;;;16.40;57.00;;;;;;5074853;28;20174;-69
2022/04/27 10:53:20;;;;;;;4.00;3.60;;;16.00;54.70;;;;;;5074101;28;20173;-70
2022/04/27 10:55:51;;;;;;;6.53;4.38;;;15.80;54.90;;;;;;5073976;28;20186;-70
2022/04/27 10:58:28;;;;;;;3.63;3.30;;;15.90;56.10;;;;;;5074354;28;20243;-70
2022/04/27 11:01:02;;;;;;;4.45;3.90;;;15.90;56.10;;;;;;5073636;28;20531;-71
2022/04/27 11:03:40;;;;;;;5.20;3.83;;;15.90;56.80;;;;;;5073584;28;20179;-69
2022/04/27 11:06:09;;;;;;;3.28;3.08;;;16.30;56.90;;;;;;5074021;28;20268;-69
2022/04/27 11:09:13;;;;;;;4.28;3.60;;;17.10;56.50;;;;;;5074974;28;20281;-69
2022/04/27 11:11:55;;;;;;;3.75;3.28;;;17.20;54.70;;;;;;5072937;28;20181;-69
2022/04/27 11:14:26;;;;;;;11.10;6.00;;;17.20;54.60;;;;;;5074497;28;20158;-69
2022/04/27 11:16:51;;;;;;;4.80;4.10;;;17.10;55.40;;;;;;5074596;28;20243;-69
2022/04/27 11:19:17;;;;;;;3.65;3.35;;;17.20;55.50;;;;;;5073454;28;20205;-69
2022/04/27 11:21:43;;;;;;;8.13;3.72;;;17.20;56.10;;;;;;5073048;28;20193;-69
2022/04/27 11:24:11;;;;;;;7.68;3.28;;;17.20;54.80;;;;;;5073432;28;20177;-69
2022/04/27 11:26:44;;;;;;;3.55;3.25;;;17.10;54.50;;;;;;5074266;28;20166;-69
2022/04/27 11:29:15;;;;;;;3.60;3.30;;;16.90;55.00;;;;;;5073134;28;20181;-68
2022/04/27 11:31:44;;;;;;;5.93;3.90;;;16.70;57.40;;;;;;5073261;28;20582;-68
2022/04/27 11:34:27;;;;;;;3.85;3.55;;;16.50;54.40;;;;;;5073728;28;20213;-68
2022/04/27 11:36:54;;;;;;;5.22;4.72;;;16.10;53.60;;;;;;5074045;28;20202;-69
2022/04/27 11:39:25;;;;;;;4.18;3.45;;;16.00;54.30;;;;;;5073422;28;20178;-69
2022/04/27 11:42:01;;;;;;;5.15;4.63;;;16.00;55.30;;;;;;5074698;28;20157;-69
2022/04/27 11:44:30;;;;;;;4.38;3.40;;;16.20;55.90;;;;;;5073594;28;20222;-70
2022/04/27 11:46:56;;;;;;;3.95;3.42;;;16.30;56.30;;;;;;5073421;28;20200;-68
2022/04/27 11:49:25;;;;;;;5.88;3.90;;;16.50;58.20;;;;;;5072578;28;20223;-68
2022/04/27 11:51:50;;;;;;;7.15;3.97;;;16.70;60.00;;;;;;5073930;28;20261;-69
2022/04/27 11:54:34;;;;;;;3.95;3.55;;;16.90;60.10;;;;;;5072558;28;20207;-69
2022/04/27 11:57:03;;;;;;;3.78;3.47;;;17.20;58.70;;;;;;5073239;28;20236;-69
2022/04/27 11:59:42;;;;;;;4.78;3.72;;;17.50;57.70;;;;;;5074026;28;20214;-69
2022/04/27 12:02:09;;;;;;;12.95;4.15;;;17.70;58.50;;;;;;5073959;28;20173;-69
2022/04/27 12:04:41;;;;;;;9.13;4.32;;;17.80;58.70;;;;;;5073186;28;20189;-69
2022/04/27 12:07:17;;;;;;;4.72;3.67;;;18.00;59.10;;;;;;5073904;28;20225;-69
2022/04/27 12:10:04;;;;;;;3.80;3.40;;;18.20;57.90;;;;;;5072285;28;20177;-69
2022/04/27 12:12:31;;;;;;;6.38;4.20;;;18.10;56.50;;;;;;5072491;28;20219;-70
2022/04/27 12:15:01;;;;;;;6.57;4.15;;;18.00;58.60;;;;;;5073003;28;20567;-70
2022/04/27 12:17:50;;;;;;;5.45;4.00;;;18.00;58.40;;;;;;5072258;28;20232;-70
2022/04/27 12:20:26;;;;;;;5.82;4.25;;;17.80;58.40;;;;;;5074386;28;20162;-69
2022/04/27 12:22:59;;;;;;;4.10;3.70;;;17.70;58.20;;;;;;5072176;28;20215;-68
2022/04/27 12:25:33;;;;;;;4.07;3.78;;;17.60;58.70;;;;;;5072011;28;20196;-69
2022/04/27 12:28:00;;;;;;;5.90;3.97;;;17.20;59.30;;;;;;5073394;28;20193;-69
2022/04/27 12:30:25;;;;;;;4.60;3.92;;;17.10;59.50;;;;;;5072121;28;20177;-69
2022/04/27 12:32:52;;;;;;;4.57;3.75;;;17.10;58.70;;;;;;5072451;28;20196;-69
2022/04/27 12:38:11;;;;;;;5.15;3.92;;;17.60;57.20;;;;;;5073350;28;20779;-70
2022/04/27 12:40:42;;;;;;;4.43;4.03;;;18.00;56.20;;;;;;5072019;28;20260;-70
2022/04/27 12:43:10;;;;;;;4.03;3.67;;;18.40;55.20;;;;;;5073254;28;20153;-69
2022/04/27 12:45:36;;;;;;;4.30;3.90;;;18.60;55.40;;;;;;5073275;28;20208;-70
2022/04/27 12:48:04;;;;;;;6.43;3.78;;;18.40;54.70;;;;;;5071922;28;20201;-70
2022/04/27 12:50:31;;;;;;;4.00;3.60;;;18.10;55.00;;;;;;5072034;28;20220;-70
2022/04/27 12:53:09;;;;;;;3.88;3.58;;;17.80;54.60;;;;;;5072875;28;20178;-70
2022/04/27 12:55:35;;;;;;;6.65;3.40;;;17.50;57.10;;;;;;5073375;28;20169;-70
2022/04/27 12:58:01;;;;;;;7.53;3.70;;;17.70;56.00;;;;;;5072018;28;20696;-70
2022/04/27 13:00:38;;;;;;;7.22;5.53;;;17.80;55.10;;;;;;5071859;28;20230;-70
2022/04/27 13:03:05;;;;;;;9.75;4.13;;;17.70;52.90;;;;;;5071825;28;20173;-70
2022/04/27 13:05:31;;;;;;;6.10;4.53;;;17.70;53.10;;;;;;5071856;28;20162;-70